Time;durP1;ratioP1;P1;durP2;ratioP2;P2;SDS_P1;SDS_P2;PMS_P1;PMS_P2;Temp;Humidity;BMP_temperature;BMP_pressure;BME280_temperature;BME280_humidity;BME280_pressure;Samples;Min_cycle;Max_cycle;Signal;HPM_P1;HPM_P2
2021/09/22 00:01:19;;;;;;;8.32;5.35;;;;;;;12.19;85.55;101576.50;5045972;28;20041;-79
2021/09/22 00:03:44;;;;;;;9.43;5.68;;;;;;;12.21;85.58;101577.41;5044623;28;20044;-79
2021/09/22 00:06:10;;;;;;;9.18;6.47;;;;;;;12.22;85.44;101579.16;5043411;28;20043;-79
2021/09/22 00:08:35;;;;;;;9.27;5.43;;;;;;;12.25;85.53;101570.34;5041988;28;20072;-79
2021/09/22 00:11:00;;;;;;;8.63;5.80;;;;;;;12.32;84.94;101566.84;5041916;28;20099;-79
2021/09/22 00:13:26;;;;;;;9.50;6.28;;;;;;;12.25;85.69;101565.06;5041936;28;20087;-79
2021/09/22 00:15:52;;;;;;;8.82;5.50;;;;;;;12.27;84.51;101569.47;5041266;28;20476;-79
2021/09/22 00:18:18;;;;;;;9.25;5.05;;;;;;;12.27;84.49;101568.59;5040628;28;20487;-79
2021/09/22 00:20:43;;;;;;;7.65;5.05;;;;;;;12.30;84.08;101562.44;5042787;28;20056;-80
2021/09/22 00:23:08;;;;;;;8.88;5.85;;;;;;;12.30;84.31;101573.03;5043963;28;20037;-79
2021/09/22 00:25:35;;;;;;;8.18;4.70;;;;;;;12.38;83.91;101574.81;5043540;28;20033;-81
2021/09/22 00:28:02;;;;;;;6.68;5.10;;;;;;;12.37;84.05;101570.41;5043425;28;20396;-79
2021/09/22 00:30:27;;;;;;;7.70;5.30;;;;;;;12.41;83.57;101573.94;5044068;28;20495;-80
2021/09/22 00:32:53;;;;;;;8.65;5.55;;;;;;;12.44;83.65;101574.84;5042687;28;20037;-79
2021/09/22 00:35:18;;;;;;;9.48;5.30;;;;;;;12.50;83.54;101576.63;5043564;28;20041;-80
2021/09/22 00:37:44;;;;;;;7.53;5.03;;;;;;;12.50;83.40;101571.31;5041988;28;20037;-79
2021/09/22 00:40:10;;;;;;;7.40;4.55;;;;;;;12.54;82.88;101575.72;5045303;28;20407;-79
2021/09/22 00:42:36;;;;;;;6.88;5.00;;;;;;;12.58;83.03;101574.00;5031795;28;20037;-79
2021/09/22 00:45:08;;;;;;;11.25;5.10;;;;;;;12.59;83.08;101568.69;5045007;28;20124;-80
2021/09/22 00:47:34;;;;;;;7.68;5.43;;;;;;;12.63;82.97;101573.13;5037615;28;20507;-79
2021/09/22 00:50:08;;;;;;;7.00;4.82;;;;;;;12.69;82.21;101572.25;5043003;28;20044;-78
2021/09/22 00:52:33;;;;;;;8.00;4.65;;;;;;;12.71;81.55;101571.38;5032006;28;20037;-80
2021/09/22 00:54:59;;;;;;;6.60;4.72;;;;;;;12.74;81.68;101564.31;5043325;28;20032;-79
2021/09/22 00:57:24;;;;;;;6.80;4.60;;;;;;;12.74;80.77;101562.53;5041137;28;20044;-78
2021/09/22 00:59:50;;;;;;;8.70;4.65;;;;;;;12.76;80.41;101566.09;5011254;28;20036;-78
2021/09/22 01:02:16;;;;;;;7.90;4.55;;;;;;;12.79;80.53;101566.09;5015162;28;20083;-79
2021/09/22 01:04:42;;;;;;;8.25;4.55;;;;;;;12.82;79.83;101570.50;5043737;28;20082;-78
2021/09/22 01:07:10;;;;;;;8.95;5.07;;;;;;;12.84;79.88;101564.31;5040738;28;20037;-79
2021/09/22 01:09:36;;;;;;;8.80;5.40;;;;;;;12.89;79.42;101566.94;5043496;28;20063;-79
2021/09/22 01:12:02;;;;;;;8.32;5.72;;;;;;;12.90;79.58;101558.13;5040643;28;20033;-80
2021/09/22 01:14:27;;;;;;;7.97;5.55;;;;;;;12.96;78.75;101560.78;5019770;28;20039;-79
2021/09/22 01:16:54;;;;;;;9.45;5.15;;;;;;;12.98;78.68;101564.31;5041189;28;20029;-79
2021/09/22 01:19:20;;;;;;;8.77;5.60;;;;;;;12.99;77.98;101568.72;5042354;28;20057;-79
2021/09/22 01:21:48;;;;;;;9.60;5.28;;;;;;;12.97;78.83;101570.53;5025055;28;20029;-78
2021/09/22 01:24:15;;;;;;;7.97;4.68;;;;;;;12.97;78.47;101570.53;5032587;28;20025;-79
2021/09/22 01:26:41;;;;;;;7.70;4.88;;;;;;;12.94;78.62;101565.19;5024901;28;20029;-79
2021/09/22 01:29:09;;;;;;;7.97;5.20;;;;;;;12.97;78.60;101557.28;5032511;28;20029;-78
2021/09/22 01:31:38;;;;;;;9.50;4.95;;;;;;;12.94;78.79;101552.84;5041033;28;20036;-79
2021/09/22 01:34:06;;;;;;;7.13;4.50;;;;;;;12.94;78.68;101557.25;5022847;28;20037;-79
2021/09/22 01:36:51;;;;;;;7.53;5.30;;;;;;;12.90;79.26;101550.19;5035775;28;20129;-80
2021/09/22 01:39:17;;;;;;;8.38;4.85;;;;;;;12.94;78.85;101547.56;5028785;28;20087;-78
2021/09/22 01:41:44;;;;;;;11.40;5.40;;;;;;;12.93;78.85;101555.50;5033722;28;20045;-78
2021/09/22 01:44:12;;;;;;;9.90;5.38;;;;;;;12.93;79.03;101552.84;5013718;28;20025;-79
2021/09/22 01:46:56;;;;;;;9.32;4.97;;;;;;;12.89;79.37;101556.34;5032650;28;20107;-79
2021/09/22 01:49:37;;;;;;;10.32;5.15;;;;;;;12.82;79.61;101562.56;5040093;28;20033;-79
2021/09/22 01:52:06;;;;;;;10.95;5.55;;;;;;;12.72;80.52;101559.00;5022480;28;20055;-80
2021/09/22 01:54:45;;;;;;;8.60;4.85;;;;;;;12.63;80.61;101548.41;5012334;28;20034;-79
2021/09/22 01:57:11;;;;;;;9.20;5.32;;;;;;;12.57;80.87;101553.66;5041931;28;20029;-80
2021/09/22 01:59:36;;;;;;;11.60;5.03;;;;;;;12.56;81.41;101555.44;5031008;28;20029;-79
2021/09/22 02:02:37;;;;;;;9.68;5.57;;;;;;;12.66;81.72;101561.66;5018390;28;20041;-79
2021/09/22 02:05:22;;;;;;;10.32;5.35;;;;;;;12.72;80.92;101562.53;5021112;28;20052;-78
2021/09/22 02:07:56;;;;;;;11.13;5.30;;;;;;;12.78;81.32;101560.78;5025442;28;20030;-78
2021/09/22 02:10:25;;;;;;;9.73;4.93;;;;;;;12.79;80.96;101563.44;5026962;28;20035;-79
2021/09/22 02:12:50;;;;;;;11.52;5.15;;;;;;;12.75;81.31;101566.06;5030036;28;20029;-79
2021/09/22 02:15:16;;;;;;;10.95;5.25;;;;;;;12.74;81.24;101565.19;5030898;28;20064;-79
2021/09/22 02:18:02;;;;;;;15.32;6.60;;;;;;;12.77;81.63;101559.00;5039481;28;20452;-79
2021/09/22 02:20:29;;;;;;;12.50;5.32;;;;;;;12.87;81.38;101558.16;5040802;28;20071;-78
2021/09/22 02:23:04;;;;;;;15.35;5.63;;;;;;;12.90;81.44;101552.84;5016282;28;20846;-79
2021/09/22 02:25:30;;;;;;;12.93;5.07;;;;;;;12.97;81.17;101544.03;5039907;28;20123;-79
2021/09/22 02:27:57;;;;;;;11.77;5.55;;;;;;;12.85;81.81;101546.66;5032357;28;20116;-79
2021/09/22 02:30:23;;;;;;;10.85;4.97;;;;;;;12.82;81.86;101551.97;5040035;28;20556;-79
2021/09/22 02:32:53;;;;;;;12.90;5.00;;;;;;;12.77;82.54;101548.41;5032286;28;20091;-78
2021/09/22 02:35:19;;;;;;;13.30;5.10;;;;;;;12.71;82.76;101544.88;5023540;28;20033;-78
2021/09/22 02:38:03;;;;;;;11.00;4.93;;;;;;;12.67;83.15;101537.78;5035765;28;20129;-78
2021/09/22 02:40:40;;;;;;;11.60;5.22;;;;;;;12.66;83.57;101540.47;5041004;28;20392;-78
2021/09/22 02:43:06;;;;;;;11.88;5.78;;;;;;;12.71;83.25;101542.22;5033866;28;20052;-79
2021/09/22 02:45:32;;;;;;;14.18;6.40;;;;;;;12.75;83.72;101544.88;5045624;28;20040;-80
2021/09/22 02:47:57;;;;;;;12.73;5.38;;;;;;;12.85;83.12;101554.59;5034387;28;20038;-79
2021/09/22 02:50:23;;;;;;;14.30;5.75;;;;;;;12.84;83.39;101547.56;5029185;28;20127;-79
2021/09/22 02:52:49;;;;;;;13.50;5.47;;;;;;;12.84;83.46;101551.06;5029592;28;20164;-79
2021/09/22 02:55:15;;;;;;;12.90;5.35;;;;;;;12.91;83.31;101551.94;5017312;28;20109;-79
2021/09/22 02:57:41;;;;;;;15.05;5.95;;;;;;;12.94;83.15;101546.66;5037033;28;20029;-79
2021/09/22 03:00:08;;;;;;;11.90;5.50;;;;;;;12.96;83.04;101544.88;5042900;28;20036;-78
2021/09/22 03:02:35;;;;;;;15.65;5.25;;;;;;;12.93;83.77;101550.19;5036841;28;20029;-80
2021/09/22 03:05:00;;;;;;;12.85;5.30;;;;;;;12.97;83.40;101556.34;5043690;28;20066;-79
2021/09/22 03:07:26;;;;;;;13.07;5.53;;;;;;;12.92;83.14;101553.72;5035788;28;20407;-78
2021/09/22 03:09:51;;;;;;;13.88;5.85;;;;;;;12.85;84.34;101559.91;5044755;28;20405;-79
2021/09/22 03:12:17;;;;;;;14.40;5.60;;;;;;;12.90;83.58;101551.06;5026351;28;20107;-77
2021/09/22 03:14:42;;;;;;;15.68;5.57;;;;;;;12.90;83.52;101547.53;5023247;28;20145;-79
2021/09/22 03:17:08;;;;;;;16.92;5.55;;;;;;;12.91;83.93;101549.28;5044502;28;20036;-79
2021/09/22 03:19:33;;;;;;;17.58;5.30;;;;;;;12.85;84.02;101552.84;5040344;28;20037;-78
2021/09/22 03:21:59;;;;;;;15.35;4.93;;;;;;;12.85;84.69;101554.59;5045470;28;20073;-77
2021/09/22 03:24:44;;;;;;;14.80;4.90;;;;;;;12.86;84.19;101559.00;5042225;28;20427;-79
2021/09/22 03:27:10;;;;;;;14.95;4.47;;;;;;;12.85;84.17;101563.44;5045407;28;20021;-79
2021/09/22 03:29:36;;;;;;;13.68;4.72;;;;;;;12.86;84.46;101570.50;5034596;28;20033;-79
2021/09/22 03:32:01;;;;;;;14.65;5.25;;;;;;;12.88;84.76;101583.75;5034051;28;20087;-79
2021/09/22 03:34:27;;;;;;;16.08;5.03;;;;;;;12.91;84.27;101579.31;5042783;28;20053;-78
2021/09/22 03:36:53;;;;;;;14.20;4.80;;;;;;;12.98;83.89;101574.94;5043510;28;20509;-79
2021/09/22 03:39:19;;;;;;;14.13;4.55;;;;;;;13.03;83.65;101573.16;5033527;28;20033;-79
2021/09/22 03:41:44;;;;;;;15.18;4.68;;;;;;;13.06;83.63;101575.81;5027560;28;20044;-78
2021/09/22 03:44:10;;;;;;;16.48;5.05;;;;;;;13.10;83.31;101574.06;5032261;28;20033;-79
2021/09/22 03:46:37;;;;;;;13.95;4.75;;;;;;;13.06;83.53;101578.47;5044558;28;20406;-79
2021/09/22 03:49:03;;;;;;;12.18;4.57;;;;;;;13.08;83.50;101570.53;5027025;28;20033;-79
2021/09/22 03:51:29;;;;;;;13.43;4.13;;;;;;;13.08;83.14;101576.69;5031481;28;20021;-80
2021/09/22 03:53:54;;;;;;;14.32;4.75;;;;;;;13.04;83.36;101577.56;5034266;28;20025;-78
2021/09/22 03:56:20;;;;;;;14.52;4.22;;;;;;;12.99;83.17;101575.78;5046591;28;20052;-78
2021/09/22 03:58:46;;;;;;;19.10;5.72;;;;;;;13.01;83.21;101585.53;5036702;28;20400;-78
2021/09/22 04:01:15;;;;;;;13.07;5.18;;;;;;;13.04;83.48;101577.56;5043294;28;20458;-79
2021/09/22 04:03:40;;;;;;;13.73;4.38;;;;;;;13.04;82.93;101582.88;5040426;28;20658;-79
2021/09/22 04:06:06;;;;;;;12.65;5.10;;;;;;;12.98;83.46;101577.56;5043883;28;20040;-79
2021/09/22 04:08:31;;;;;;;16.88;4.32;;;;;;;12.96;83.13;101579.34;5043393;28;20032;-79
2021/09/22 04:10:57;;;;;;;17.33;4.45;;;;;;;12.87;83.26;101576.69;5042606;28;20506;-79
2021/09/22 04:13:22;;;;;;;13.75;4.35;;;;;;;12.77;83.69;101590.81;5031550;28;20178;-79
2021/09/22 04:15:52;;;;;;;16.85;4.82;;;;;;;12.70;83.90;101585.47;5022071;28;20024;-78
2021/09/22 04:18:19;;;;;;;22.23;5.40;;;;;;;12.64;84.00;101585.47;5030960;28;20491;-79
2021/09/22 04:20:46;;;;;;;20.65;4.80;;;;;;;12.58;84.54;101592.53;5040174;28;20041;-79
2021/09/22 04:23:12;;;;;;;16.70;4.13;;;;;;;12.52;85.05;101600.44;5032390;28;20411;-78
2021/09/22 04:25:37;;;;;;;14.93;5.07;;;;;;;12.48;85.52;101599.56;5043381;28;20032;-78
2021/09/22 04:28:04;;;;;;;14.65;4.18;;;;;;;12.44;85.56;101597.75;5032083;28;20033;-78
2021/09/22 04:30:48;;;;;;;11.75;4.53;;;;;;;12.46;85.41;101604.84;5034511;28;20126;-77
2021/09/22 04:33:32;;;;;;;19.80;4.53;;;;;;;12.45;85.46;101607.50;5038392;28;20075;-77
2021/09/22 04:36:18;;;;;;;17.85;4.47;;;;;;;12.55;85.49;101601.34;5020834;28;20087;-77
2021/09/22 04:39:05;;;;;;;27.60;5.47;;;;;;;12.59;85.35;101605.75;5019716;28;20075;-77
2021/09/22 04:41:49;;;;;;;16.85;4.35;;;;;;;12.62;85.29;101603.13;5044403;28;20048;-77
2021/09/22 04:44:33;;;;;;;16.63;4.55;;;;;;;12.67;84.74;101601.38;5040523;28;20099;-77
2021/09/22 04:47:17;;;;;;;14.32;4.25;;;;;;;12.66;84.89;101604.03;5027553;28;20092;-77
2021/09/22 04:50:01;;;;;;;14.73;4.40;;;;;;;12.59;85.17;101600.47;5034012;28;20175;-78
2021/09/22 04:52:45;;;;;;;21.30;5.03;;;;;;;12.57;85.69;101604.00;5013420;28;20067;-77
2021/09/22 04:55:29;;;;;;;19.58;5.22;;;;;;;12.59;85.50;101595.16;5036203;28;20045;-77
2021/09/22 04:58:13;;;;;;;17.58;4.80;;;;;;;12.61;85.58;101598.72;5035731;28;20047;-77
2021/09/22 05:01:01;;;;;;;10.13;3.78;;;;;;;12.65;85.63;101603.16;5033412;28;20110;-77
2021/09/22 05:03:45;;;;;;;18.67;4.18;;;;;;;12.74;85.36;101612.00;5037593;28;20102;-77
2021/09/22 05:06:29;;;;;;;16.65;4.20;;;;;;;12.80;84.92;101609.34;5040722;28;20099;-77
2021/09/22 05:09:13;;;;;;;15.57;4.32;;;;;;;12.84;84.78;101603.19;5042499;28;20052;-78
2021/09/22 05:11:57;;;;;;;20.98;4.30;;;;;;;12.89;84.86;101615.56;5040174;28;20068;-77
2021/09/22 05:14:41;;;;;;;20.77;4.93;;;;;;;12.91;84.87;101616.41;5044614;28;20587;-78
2021/09/22 05:17:25;;;;;;;17.77;4.63;;;;;;;12.98;84.25;101611.16;5041064;28;20052;-77
2021/09/22 05:20:10;;;;;;;17.60;4.10;;;;;;;12.90;84.63;101616.44;5045095;28;20083;-77
2021/09/22 05:22:54;;;;;;;17.67;4.82;;;;;;;12.99;84.06;101618.19;5040812;28;20120;-77
2021/09/22 05:25:38;;;;;;;22.73;4.95;;;;;;;13.04;83.58;101621.75;5044119;28;20128;-77
2021/09/22 05:28:22;;;;;;;21.77;6.45;;;;;;;13.06;84.23;101623.50;5041809;28;20457;-77
2021/09/22 05:31:06;;;;;;;14.95;4.28;;;;;;;13.06;83.67;101628.81;5043821;28;20128;-77
2021/09/22 05:34:04;;;;;;;19.10;4.95;;;;;;;13.12;83.60;101635.88;5007961;28;20044;-77
2021/09/22 05:36:48;;;;;;;22.27;5.47;;;;;;;13.12;83.68;101626.16;5042892;28;20512;-77
2021/09/22 05:39:32;;;;;;;19.75;4.95;;;;;;;13.12;83.07;101630.56;5044311;28;20135;-77
2021/09/22 05:42:29;;;;;;;20.50;4.35;;;;;;;13.10;83.19;101637.66;4991162;28;20049;-77
2021/09/22 05:45:14;;;;;;;23.75;5.00;;;;;;;13.14;83.09;101632.34;5041769;28;20083;-77
2021/09/22 05:47:58;;;;;;;13.40;3.70;;;;;;;13.25;83.03;101644.72;5037817;28;20071;-77
2021/09/22 05:50:43;;;;;;;24.08;4.47;;;;;;;13.32;82.58;101643.88;5037037;28;20116;-77
2021/09/22 05:53:27;;;;;;;22.15;5.10;;;;;;;13.37;82.08;101648.31;5040284;28;20200;-77
2021/09/22 05:56:11;;;;;;;17.77;4.40;;;;;;;13.45;82.54;101652.72;5038871;28;20587;-77
2021/09/22 05:58:56;;;;;;;14.13;4.30;;;;;;;13.53;81.71;101654.50;5042651;28;20129;-77
2021/09/22 06:01:40;;;;;;;20.30;4.47;;;;;;;13.66;80.83;101650.06;5031607;28;20128;-77
2021/09/22 06:04:37;;;;;;;20.73;5.07;;;;;;;13.75;80.65;101654.47;5035868;28;20107;-77
2021/09/22 06:07:21;;;;;;;15.02;4.40;;;;;;;13.77;80.74;101655.34;5041636;28;20156;-77
2021/09/22 06:10:19;;;;;;;19.10;5.15;;;;;;;13.80;80.37;101652.69;5028218;28;20044;-77
2021/09/22 06:12:56;;;;;;;16.08;3.97;;;;;;;13.81;79.59;101659.78;5038170;28;20061;-77
2021/09/22 06:15:21;;;;;;;20.33;5.35;;;;;;;13.83;79.42;101647.38;5041401;28;20491;-77
2021/09/22 06:17:47;;;;;;;21.52;5.80;;;;;;;13.88;79.51;101650.91;5043570;28;20413;-77
2021/09/22 06:20:13;;;;;;;19.88;5.18;;;;;;;13.89;79.59;101658.00;5044574;28;20442;-77
2021/09/22 06:22:39;;;;;;;20.85;4.30;;;;;;;13.99;78.84;101662.41;5034584;28;20034;-77
2021/09/22 06:25:04;;;;;;;20.60;4.10;;;;;;;13.95;79.22;101665.94;5046375;28;20495;-77
2021/09/22 06:27:32;;;;;;;22.27;4.72;;;;;;;13.96;79.06;101666.81;5034621;28;20032;-77
2021/09/22 06:29:57;;;;;;;17.88;3.90;;;;;;;13.88;78.97;101664.16;5045572;28;20029;-77
2021/09/22 06:32:22;;;;;;;16.50;3.85;;;;;;;13.96;78.92;101688.94;5041826;28;20487;-77
2021/09/22 06:35:20;;;;;;;19.55;4.55;;;;;;;13.84;78.03;101685.44;5025533;28;20051;-77
2021/09/22 06:37:52;;;;;;;18.05;4.78;;;;;;;13.83;79.15;101681.88;5039154;28;20114;-77
2021/09/22 06:40:22;;;;;;;16.02;4.25;;;;;;;13.89;78.15;101679.22;5044709;28;20498;-77
2021/09/22 06:42:48;;;;;;;19.55;4.45;;;;;;;13.91;78.40;101668.59;5030768;28;20117;-77
2021/09/22 06:45:16;;;;;;;20.95;4.38;;;;;;;13.88;78.69;101676.56;5046367;28;20471;-77
2021/09/22 06:47:41;;;;;;;18.10;5.00;;;;;;;13.90;77.87;101683.63;5043324;28;20044;-77
2021/09/22 06:50:07;;;;;;;19.55;5.25;;;;;;;13.90;78.48;101683.63;5046047;28;20513;-77
2021/09/22 06:52:34;;;;;;;17.30;4.50;;;;;;;13.94;78.22;101688.06;5042917;28;20044;-77
2021/09/22 06:55:00;;;;;;;15.40;4.05;;;;;;;13.94;78.01;101682.75;5023152;28;20042;-77
2021/09/22 06:57:25;;;;;;;21.48;4.82;;;;;;;13.95;77.83;101684.50;5049563;28;20017;-78
2021/09/22 06:59:51;;;;;;;19.10;4.15;;;;;;;14.02;77.69;101680.97;5046369;28;20132;-78
2021/09/22 07:02:16;;;;;;;22.08;4.90;;;;;;;13.99;77.50;101686.28;5049898;28;20112;-78
2021/09/22 07:04:42;;;;;;;18.60;3.95;;;;;;;14.01;77.15;101689.78;5044285;28;20025;-78
2021/09/22 07:07:08;;;;;;;16.95;4.80;;;;;;;14.17;77.01;101690.69;5046859;28;20406;-79
2021/09/22 07:09:33;;;;;;;19.65;4.95;;;;;;;14.20;76.10;101684.44;5044974;28;20037;-77
2021/09/22 07:11:59;;;;;;;19.55;4.88;;;;;;;14.23;75.85;101693.31;5028522;28;20033;-78
2021/09/22 07:14:24;;;;;;;18.08;4.90;;;;;;;14.19;76.38;101691.53;5041737;28;20129;-78
2021/09/22 07:16:49;;;;;;;25.05;4.68;;;;;;;14.20;76.20;101689.75;5042056;28;20036;-77
2021/09/22 07:19:15;;;;;;;18.38;3.88;;;;;;;14.13;76.40;101693.34;5037716;28;20065;-78
2021/09/22 07:21:40;;;;;;;20.08;4.72;;;;;;;14.11;76.29;101692.44;5036189;28;20084;-78
2021/09/22 07:24:05;;;;;;;14.63;3.53;;;;;;;14.15;76.36;101696.88;5015789;28;20061;-77
2021/09/22 07:26:31;;;;;;;24.17;4.78;;;;;;;14.25;76.50;101698.59;5044839;28;20082;-78
2021/09/22 07:28:56;;;;;;;23.27;4.63;;;;;;;14.15;76.23;101696.88;5043713;28;20039;-77
2021/09/22 07:31:22;;;;;;;18.77;4.72;;;;;;;14.11;76.41;101706.59;5035373;28;20082;-77
2021/09/22 07:33:47;;;;;;;17.23;4.60;;;;;;;14.16;76.81;101714.56;5044349;28;20032;-76
2021/09/22 07:36:13;;;;;;;17.35;5.03;;;;;;;14.23;75.92;101711.03;5044166;28;20562;-78
2021/09/22 07:38:39;;;;;;;20.63;4.00;;;;;;;14.23;74.83;101724.28;5044702;28;20052;-78
2021/09/22 07:41:05;;;;;;;16.10;3.88;;;;;;;14.17;75.99;101727.84;5043462;28;20055;-77
2021/09/22 07:43:31;;;;;;;16.65;3.60;;;;;;;14.26;75.85;101732.25;5043699;28;20051;-77
2021/09/22 07:45:56;;;;;;;22.25;3.97;;;;;;;14.32;75.86;101732.22;5033768;28;20037;-77
2021/09/22 07:48:22;;;;;;;20.60;5.30;;;;;;;14.32;74.92;101734.00;5046308;28;20036;-78
2021/09/22 07:50:48;;;;;;;23.70;5.18;;;;;;;14.29;75.65;101734.00;5043289;28;20037;-78
2021/09/22 07:53:14;;;;;;;20.52;4.47;;;;;;;14.28;75.27;101734.88;5033132;28;20503;-77
2021/09/22 07:55:39;;;;;;;17.50;4.25;;;;;;;14.35;75.51;101747.25;5036318;28;20032;-78
2021/09/22 07:58:05;;;;;;;18.98;4.05;;;;;;;14.37;75.09;101740.19;5043014;28;20044;-78
2021/09/22 08:00:30;;;;;;;22.42;4.72;;;;;;;14.41;75.40;101742.84;5035581;28;20120;-77
2021/09/22 08:02:58;;;;;;;19.98;4.53;;;;;;;14.43;75.42;101741.03;5043499;28;20044;-76
2021/09/22 08:05:24;;;;;;;18.77;4.22;;;;;;;14.50;74.67;101746.34;5044139;28;20037;-77
2021/09/22 08:07:49;;;;;;;18.75;3.88;;;;;;;14.63;74.41;101749.00;5044043;28;20039;-78
2021/09/22 08:10:16;;;;;;;19.65;4.13;;;;;;;14.73;74.12;101743.66;5043384;28;20038;-78
2021/09/22 08:12:43;;;;;;;20.85;5.10;;;;;;;14.84;72.87;101736.50;5045028;28;20127;-78
2021/09/22 08:15:09;;;;;;;17.42;4.18;;;;;;;14.92;73.60;101733.81;5043104;28;20090;-78
2021/09/22 08:17:35;;;;;;;20.48;4.25;;;;;;;14.87;73.25;101742.69;5044645;28;20033;-78
2021/09/22 08:20:00;;;;;;;21.40;4.10;;;;;;;14.89;73.34;101735.59;5043368;28;20544;-78
2021/09/22 08:22:26;;;;;;;18.25;4.43;;;;;;;15.00;72.88;101732.00;5041328;28;20037;-78
2021/09/22 08:24:51;;;;;;;17.05;4.43;;;;;;;15.04;72.97;101731.09;5044988;28;20037;-77
2021/09/22 08:27:17;;;;;;;17.10;3.83;;;;;;;15.16;72.19;101727.47;5040135;28;20396;-78
2021/09/22 08:29:42;;;;;;;15.10;3.70;;;;;;;15.23;71.46;101723.91;5018697;28;20403;-77
2021/09/22 08:32:08;;;;;;;16.08;4.32;;;;;;;15.31;71.01;101727.38;5024127;28;20041;-78
2021/09/22 08:34:33;;;;;;;15.95;3.70;;;;;;;15.39;71.06;101722.00;5042871;28;20029;-77
2021/09/22 08:36:59;;;;;;;19.92;4.90;;;;;;;15.41;71.23;101728.22;5042674;28;20037;-77
2021/09/22 08:39:29;;;;;;;17.33;3.60;;;;;;;15.36;69.68;101720.25;5042028;28;20038;-77
2021/09/22 08:41:56;;;;;;;16.77;4.55;;;;;;;15.32;70.25;101719.38;5043678;28;20040;-78
2021/09/22 08:44:22;;;;;;;21.77;4.35;;;;;;;15.37;70.10;101721.13;5044877;28;20458;-78
2021/09/22 08:46:48;;;;;;;18.17;3.58;;;;;;;15.42;70.71;101722.00;5045199;28;20065;-79
2021/09/22 08:49:15;;;;;;;20.23;4.43;;;;;;;15.41;70.70;101725.56;5043257;28;20487;-78
2021/09/22 08:51:41;;;;;;;16.90;4.47;;;;;;;15.53;70.73;101730.75;5044433;28;20039;-78
2021/09/22 08:54:07;;;;;;;16.70;3.55;;;;;;;15.66;69.87;101724.44;5042658;28;20048;-79
2021/09/22 08:56:36;;;;;;;21.65;4.95;;;;;;;15.70;69.34;101720.91;5045861;28;20041;-79
2021/09/22 08:59:01;;;;;;;16.40;4.40;;;;;;;15.68;68.93;101722.66;5043365;28;20423;-78
2021/09/22 09:01:26;;;;;;;22.42;4.93;;;;;;;15.60;69.72;101721.84;5045149;28;20032;-79
2021/09/22 09:03:52;;;;;;;19.95;4.38;;;;;;;15.70;69.39;101723.56;5016273;28;20439;-78
2021/09/22 09:06:23;;;;;;;20.95;4.22;;;;;;;15.85;69.05;101726.97;5046603;28;20091;-79
2021/09/22 09:08:51;;;;;;;17.27;4.10;;;;;;;15.96;68.19;101727.78;5039135;28;20509;-79
2021/09/22 09:11:24;;;;;;;14.20;3.92;;;;;;;16.08;67.89;101732.97;5043696;28;20048;-77
2021/09/22 09:13:52;;;;;;;19.63;3.70;;;;;;;16.16;67.98;101735.56;5032253;28;20041;-77
2021/09/22 09:16:19;;;;;;;17.67;4.07;;;;;;;16.31;67.56;101723.88;5044626;28;20091;-78
2021/09/22 09:18:55;;;;;;;23.70;4.95;;;;;;;16.36;66.14;101730.03;5034378;28;20041;-78
2021/09/22 09:21:22;;;;;;;20.73;4.75;;;;;;;16.49;66.42;101723.69;5045854;28;20449;-77
2021/09/22 09:23:49;;;;;;;21.70;3.78;;;;;;;16.64;66.77;101733.28;5042825;28;20045;-78
2021/09/22 09:26:22;;;;;;;20.13;4.18;;;;;;;16.76;65.78;101733.09;5042953;28;20498;-77
2021/09/22 09:28:51;;;;;;;18.05;3.95;;;;;;;16.71;63.99;101740.28;5033777;28;20136;-78
2021/09/22 09:31:17;;;;;;;14.80;4.00;;;;;;;16.65;64.54;101733.25;5041902;28;20055;-76
2021/09/22 09:33:52;;;;;;;21.23;4.90;;;;;;;16.49;64.64;101742.31;5042730;28;20476;-78
2021/09/22 09:36:35;;;;;;;16.92;3.58;;;;;;;16.47;65.54;101744.13;5040173;28;20041;-78
2021/09/22 09:39:09;;;;;;;14.18;3.70;;;;;;;16.70;65.59;101734.97;5039787;28;20095;-78
2021/09/22 09:41:48;;;;;;;17.27;4.03;;;;;;;16.75;64.28;101738.47;5041396;28;20530;-78
2021/09/22 09:44:18;;;;;;;16.25;3.85;;;;;;;16.73;63.34;101743.81;5044021;28;20048;-78
2021/09/22 09:46:44;;;;;;;17.52;3.70;;;;;;;16.88;64.56;101736.56;5035831;28;20041;-78
2021/09/22 09:49:12;;;;;;;16.83;3.83;;;;;;;16.95;64.00;101733.81;5044587;28;20037;-78
2021/09/22 09:51:55;;;;;;;19.27;3.60;;;;;;;16.81;63.17;101735.75;5041050;28;20048;-78
2021/09/22 09:54:23;;;;;;;16.70;3.97;;;;;;;16.68;62.74;101740.31;5039745;28;20128;-78
2021/09/22 09:56:51;;;;;;;18.83;3.58;;;;;;;16.59;63.64;101733.31;5034298;28;20496;-78
2021/09/22 09:59:18;;;;;;;11.43;3.05;;;;;;;16.78;63.88;101730.47;5033175;28;20041;-78
2021/09/22 10:01:50;;;;;;;17.48;3.67;;;;;;;17.17;64.01;101728.16;5042002;28;20044;-78
2021/09/22 10:04:18;;;;;;;14.07;4.10;;;;;;;17.08;62.91;101734.50;5042150;28;20061;-78
2021/09/22 10:06:44;;;;;;;17.33;3.47;;;;;;;17.08;63.43;101745.16;5042072;28;20037;-78
2021/09/22 10:09:11;;;;;;;18.80;3.88;;;;;;;17.14;63.48;101728.22;5042330;28;20404;-77
2021/09/22 10:11:39;;;;;;;15.73;4.45;;;;;;;17.26;62.55;101738.69;5037236;28;20492;-76
2021/09/22 10:14:06;;;;;;;20.88;4.13;;;;;;;17.20;60.57;101733.44;5042840;28;20522;-78
2021/09/22 10:16:33;;;;;;;17.88;4.03;;;;;;;16.97;60.16;101723.97;5040005;28;20049;-77
2021/09/22 10:19:00;;;;;;;14.27;3.70;;;;;;;16.80;61.96;101724.22;5041853;28;20521;-78
2021/09/22 10:21:27;;;;;;;13.43;3.75;;;;;;;16.83;62.45;101723.28;5031684;28;20033;-78
2021/09/22 10:23:56;;;;;;;12.43;3.95;;;;;;;16.95;61.87;101723.13;5042549;28;20036;-78
2021/09/22 10:26:23;;;;;;;15.88;4.05;;;;;;;17.18;61.22;101730.78;5034221;28;20064;-78
2021/09/22 10:28:49;;;;;;;13.48;3.15;;;;;;;17.27;60.67;101730.69;5024627;28;20041;-78
2021/09/22 10:31:20;;;;;;;16.05;3.78;;;;;;;17.31;60.75;101731.50;5040809;28;20025;-78
2021/09/22 10:33:46;;;;;;;13.25;3.40;;;;;;;17.38;60.18;101713.63;5039429;28;20088;-78
2021/09/22 10:36:15;;;;;;;15.27;3.40;;;;;;;17.36;59.70;101718.97;5041492;28;20041;-78
2021/09/22 10:38:48;;;;;;;21.90;3.88;;;;;;;17.58;59.03;101719.53;5040776;28;20045;-78
2021/09/22 10:41:26;;;;;;;17.02;3.60;;;;;;;17.42;58.84;101718.00;5025065;28;20056;-79
2021/09/22 10:43:51;;;;;;;13.95;3.50;;;;;;;17.40;59.21;101709.16;5043052;28;20116;-78
2021/09/22 10:46:19;;;;;;;15.65;4.22;;;;;;;17.65;59.54;101704.28;5040799;28;20546;-77
2021/09/22 10:48:50;;;;;;;17.48;4.50;;;;;;;17.69;58.39;101695.31;5036690;28;20037;-78
2021/09/22 10:51:30;;;;;;;15.30;4.35;;;;;;;17.72;58.90;101706.81;5032718;28;20033;-78
2021/09/22 10:54:10;;;;;;;13.70;3.17;;;;;;;17.72;57.19;101706.81;5020142;28;20488;-78
2021/09/22 10:57:00;;;;;;;18.73;3.53;;;;;;;17.59;57.98;101707.94;5039596;28;20538;-78
2021/09/22 10:59:25;;;;;;;15.85;3.60;;;;;;;17.87;56.54;101702.19;5040833;28;20624;-78
2021/09/22 11:01:51;;;;;;;15.38;3.30;;;;;;;17.98;56.86;101710.00;5041301;28;20052;-78
2021/09/22 11:04:17;;;;;;;16.65;3.72;;;;;;;18.02;56.73;101709.00;5033317;28;20034;-77
2021/09/22 11:06:42;;;;;;;15.85;3.65;;;;;;;17.97;56.53;101717.09;5045915;28;20029;-78
2021/09/22 11:09:09;;;;;;;16.42;3.53;;;;;;;17.71;55.45;101702.41;5043553;28;20506;-78
2021/09/22 11:11:59;;;;;;;12.40;3.10;;;;;;;17.65;54.68;101701.59;5014114;28;20432;-78
2021/09/22 11:14:27;;;;;;;11.80;3.22;;;;;;;17.95;56.47;101698.44;5033878;28;20132;-80
2021/09/22 11:17:13;;;;;;;11.57;2.95;;;;;;;17.81;56.30;101711.16;5046080;28;20492;-79
2021/09/22 11:19:40;;;;;;;14.32;3.13;;;;;;;18.03;57.27;101705.44;5042328;28;20056;-79
2021/09/22 11:22:11;;;;;;;17.55;4.00;;;;;;;18.14;57.35;101700.78;5045899;28;20033;-79
2021/09/22 11:24:40;;;;;;;10.00;3.15;;;;;;;17.91;56.15;101703.84;5044631;28;20500;-79
2021/09/22 11:27:09;;;;;;;14.68;3.22;;;;;;;17.74;55.46;101718.38;5027294;28;20045;-79
2021/09/22 11:29:41;;;;;;;15.13;3.28;;;;;;;17.75;56.64;101706.75;5044895;28;20125;-79
2021/09/22 11:32:21;;;;;;;;;;;;;;;17.79;55.98;101699.63;5045106;28;20068;-80
2021/09/22 11:34:48;;;;;;;15.35;3.20;;;;;;;17.96;56.87;101688.63;5039346;28;19920;-79